Time,TemperatureF,DewpointF,PressureIn,WindDirection,WindDirectionDegrees,WindSpeedMPH,WindSpeedGustMPH,Humidity,HourlyPrecipIn,Conditions,Clouds,dailyrainin,SoftwareType,DateUTC
2013-03-28 00:03:00,49.0,-99.9,30.32,SW,223,4.0,5.0,-999,-99.99,,,-99.99,,2013-03-28 04:03:00,
2013-03-28 00:12:00,49.0,-99.9,30.32,SW,222,4.0,5.0,-999,-99.99,,,-99.99,,2013-03-28 04:12:00,
2013-03-28 00:23:00,49.0,-99.9,30.32,SW,221,5.0,6.0,-999,-99.99,,,-99.99,,2013-03-28 04:23:00,
2013-03-28 00:32:00,50.0,-99.9,30.31,West,275,3.0,6.0,-999,-99.99,,,-99.99,,2013-03-28 04:32:00,
2013-03-28 00:42:00,50.0,-99.9,30.31,WNW,295,7.0,8.0,-999,-99.99,,,-99.99,,2013-03-28 04:42:00,
2013-03-28 00:53:00,50.0,-99.9,30.31,WNW,303,5.0,9.0,-999,-99.99,,,-99.99,,2013-03-28 04:53:00,
2013-03-28 01:02:00,49.0,-99.9,30.31,WNW,288,3.0,4.0,-999,-99.99,,,-99.99,,2013-03-28 05:02:00,
2013-03-28 01:13:00,49.0,-99.9,30.31,WNW,282,3.0,4.0,-999,-99.99,,,-99.99,,2013-03-28 05:13:00,
2013-03-28 01:22:00,49.0,-99.9,30.32,West,275,4.0,5.0,-999,-99.99,,,-99.99,,2013-03-28 05:22:00,
2013-03-28 01:32:00,49.0,-99.9,30.32,West,266,5.0,6.0,-999,-99.99,,,-99.99,,2013-03-28 05:32:00,
2013-03-28 01:43:00,50.0,-99.9,30.32,West,265,4.0,6.0,-999,-99.99,,,-99.99,,2013-03-28 05:43:00,
2013-03-28 01:52:00,50.0,-99.9,30.32,West,264,3.0,5.0,-999,-99.99,,,-99.99,,2013-03-28 05:52:00,
2013-03-28 02:02:00,49.0,-99.9,30.31,West,263,4.0,6.0,-999,-99.99,,,-99.99,,2013-03-28 06:02:00,
2013-03-28 02:13:00,49.0,-99.9,30.31,WNW,286,5.0,7.0,-999,-99.99,,,-99.99,,2013-03-28 06:13:00,
2013-03-28 02:22:00,50.0,-99.9,30.31,WNW,286,6.0,7.0,-999,-99.99,,,-99.99,,2013-03-28 06:22:00,
2013-03-28 02:33:00,49.0,-99.9,30.31,WNW,294,5.0,7.0,-999,-99.99,,,-99.99,,2013-03-28 06:33:00,
2013-03-28 02:42:00,49.0,-99.9,30.31,WNW,297,5.0,7.0,-999,-99.99,,,-99.99,,2013-03-28 06:42:00,
2013-03-28 02:52:00,49.0,-99.9,30.30,WNW,296,5.0,6.0,-999,-99.99,,,-99.99,,2013-03-28 06:52:00,
2013-03-28 03:02:00,49.0,-99.9,30.30,WNW,285,4.0,6.0,-999,-99.99,,,-99.99,,2013-03-28 07:02:00,
2013-03-28 03:13:00,49.0,-99.9,30.31,WNW,285,4.0,6.0,-999,-99.99,,,-99.99,,2013-03-28 07:13:00,
2013-03-28 03:22:00,49.0,-99.9,30.30,WNW,292,5.0,6.0,-999,-99.99,,,-99.99,,2013-03-28 07:22:00,
2013-03-28 03:32:00,49.0,-99.9,30.30,WNW,298,6.0,7.0,-999,-99.99,,,-99.99,,2013-03-28 07:32:00,
2013-03-28 03:42:00,49.0,-99.9,30.29,WNW,296,5.0,6.0,-999,-99.99,,,-99.99,,2013-03-28 07:42:00,
2013-03-28 03:52:00,48.0,-99.9,30.29,WNW,296,5.0,6.0,-999,-99.99,,,-99.99,,2013-03-28 07:52:00,
2013-03-28 04:03:00,48.0,-99.9,30.29,WNW,296,6.0,7.0,-999,-99.99,,,-99.99,,2013-03-28 08:03:00,
2013-03-28 04:12:00,48.0,-99.9,30.30,WNW,293,6.0,6.0,-999,-99.99,,,-99.99,,2013-03-28 08:12:00,
2013-03-28 04:22:00,48.0,-99.9,30.29,WNW,297,5.0,7.0,-999,-99.99,,,-99.99,,2013-03-28 08:22:00,
2013-03-28 04:33:00,48.0,-99.9,30.29,WNW,290,6.0,7.0,-999,-99.99,,,-99.99,,2013-03-28 08:33:00,
2013-03-28 04:42:00,47.0,-99.9,30.29,WNW,294,6.0,7.0,-999,-99.99,,,-99.99,,2013-03-28 08:42:00,
2013-03-28 04:52:00,47.0,-99.9,30.29,WNW,291,5.0,7.0,-999,-99.99,,,-99.99,,2013-03-28 08:52:00,
2013-03-28 05:02:00,47.0,-99.9,30.29,WNW,296,6.0,7.0,-999,-99.99,,,-99.99,,2013-03-28 09:02:00,
2013-03-28 05:12:00,47.0,-99.9,30.29,WNW,300,5.0,6.0,-999,-99.99,,,-99.99,,2013-03-28 09:12:00,
2013-03-28 05:22:00,47.0,-99.9,30.29,WNW,295,5.0,6.0,-999,-99.99,,,-99.99,,2013-03-28 09:22:00,
2013-03-28 05:33:00,47.0,-99.9,30.29,WNW,289,5.0,6.0,-999,-99.99,,,-99.99,,2013-03-28 09:33:00,
2013-03-28 05:42:00,47.0,-99.9,30.29,WNW,301,4.0,5.0,-999,-99.99,,,-99.99,,2013-03-28 09:42:00,
2013-03-28 05:52:00,47.0,-99.9,30.29,WNW,302,5.0,6.0,-999,-99.99,,,-99.99,,2013-03-28 09:52:00,
2013-03-28 06:03:00,46.0,-99.9,30.29,WNW,296,5.0,6.0,-999,-99.99,,,-99.99,,2013-03-28 10:03:00,
2013-03-28 06:12:00,46.0,-99.9,30.29,WNW,300,4.0,6.0,-999,-99.99,,,-99.99,,2013-03-28 10:12:00,
2013-03-28 06:22:00,46.0,-99.9,30.29,NW,305,5.0,9.0,-999,-99.99,,,-99.99,,2013-03-28 10:22:00,
2013-03-28 06:33:00,46.0,-99.9,30.29,NW,308,5.0,6.0,-999,-99.99,,,-99.99,,2013-03-28 10:33:00,
2013-03-28 06:43:00,46.0,-99.9,30.30,WNW,302,5.0,8.0,-999,-99.99,,,-99.99,,2013-03-28 10:43:00,
2013-03-28 06:53:00,45.0,-99.9,30.30,WNW,303,4.0,6.0,-999,-99.99,,,-99.99,,2013-03-28 10:53:00,
2013-03-28 07:03:00,45.0,-99.9,30.30,NW,306,5.0,6.0,-999,-99.99,,,-99.99,,2013-03-28 11:03:00,
2013-03-28 07:12:00,44.0,-99.9,30.30,NW,305,6.0,7.0,-999,-99.99,,,-99.99,,2013-03-28 11:12:00,
2013-03-28 07:23:00,45.0,-99.9,30.31,NW,307,6.0,9.0,-999,-99.99,,,-99.99,,2013-03-28 11:23:00,
2013-03-28 07:32:00,44.0,-99.9,30.32,NW,317,8.0,9.0,-999,-99.99,,,-99.99,,2013-03-28 11:32:00,
2013-03-28 07:43:00,43.0,-99.9,30.32,NW,309,8.0,11.0,-999,-99.99,,,-99.99,,2013-03-28 11:43:00,
2013-03-28 07:52:00,43.0,-99.9,30.32,NW,311,8.0,10.0,-999,-99.99,,,-99.99,,2013-03-28 11:52:00,
2013-03-28 08:02:00,43.0,-99.9,30.32,NW,308,9.0,12.0,-999,-99.99,,,-99.99,,2013-03-28 12:02:00,
2013-03-28 08:12:00,43.0,-99.9,30.32,NW,308,8.0,11.0,-999,-99.99,,,-99.99,,2013-03-28 12:12:00,
2013-03-28 08:22:00,43.0,-99.9,30.32,NW,312,8.0,10.0,-999,-99.99,,,-99.99,,2013-03-28 12:22:00,
2013-03-28 08:33:00,43.0,-99.9,30.32,NW,324,7.0,10.0,-999,-99.99,,,-99.99,,2013-03-28 12:33:00,
2013-03-28 08:42:00,43.0,-99.9,30.33,NNW,327,9.0,12.0,-999,-99.99,,,-99.99,,2013-03-28 12:42:00,
2013-03-28 08:52:00,45.0,-99.9,30.33,NNW,330,9.0,13.0,-999,-99.99,,,-99.99,,2013-03-28 12:52:00,
2013-03-28 09:02:00,45.0,-99.9,30.33,NNW,332,9.0,12.0,-999,-99.99,,,-99.99,,2013-03-28 13:02:00,
2013-03-28 09:12:00,46.0,-99.9,30.33,NNW,337,9.0,13.0,-999,-99.99,,,-99.99,,2013-03-28 13:12:00,
2013-03-28 09:22:00,47.0,-99.9,30.33,NNW,343,8.0,12.0,-999,-99.99,,,-99.99,,2013-03-28 13:22:00,
2013-03-28 09:32:00,48.0,-99.9,30.34,NNW,339,10.0,14.0,-999,-99.99,,,-99.99,,2013-03-28 13:32:00,
2013-03-28 09:42:00,48.0,-99.9,30.34,NNW,348,10.0,14.0,-999,-99.99,,,-99.99,,2013-03-28 13:42:00,
2013-03-28 09:52:00,49.0,-99.9,30.35,NNW,346,10.0,13.0,-999,-99.99,,,-99.99,,2013-03-28 13:52:00,
2013-03-28 10:02:00,50.0,-99.9,30.35,NNW,347,10.0,12.0,-999,-99.99,,,-99.99,,2013-03-28 14:02:00,
2013-03-28 10:12:00,51.0,-99.9,30.35,North,350,7.0,9.0,-999,-99.99,,,-99.99,,2013-03-28 14:12:00,
2013-03-28 10:23:00,51.0,-99.9,30.35,NNW,338,8.0,10.0,-999,-99.99,,,-99.99,,2013-03-28 14:23:00,
2013-03-28 10:33:00,52.0,-99.9,30.35,NNW,336,9.0,13.0,-999,-99.99,,,-99.99,,2013-03-28 14:33:00,
2013-03-28 10:42:00,52.0,-99.9,30.36,North,353,9.0,12.0,-999,-99.99,,,-99.99,,2013-03-28 14:42:00,
2013-03-28 10:52:00,53.0,-99.9,30.36,North,355,9.0,13.0,-999,-99.99,,,-99.99,,2013-03-28 14:52:00,
2013-03-28 11:02:00,54.0,-99.9,30.36,North,-999,6.0,10.0,-999,-99.99,,,-99.99,,2013-03-28 15:02:00,
2013-03-28 11:12:00,54.0,-99.9,30.36,NNW,336,9.0,14.0,-999,-99.99,,,-99.99,,2013-03-28 15:12:00,
2013-03-28 11:22:00,55.0,-99.9,30.36,NNW,345,6.0,11.0,-999,-99.99,,,-99.99,,2013-03-28 15:22:00,
2013-03-28 11:33:00,55.0,-99.9,30.36,NNW,333,7.0,9.0,-999,-99.99,,,-99.99,,2013-03-28 15:33:00,
2013-03-28 11:43:00,55.0,-99.9,30.36,North,355,8.0,14.0,-999,-99.99,,,-99.99,,2013-03-28 15:43:00,
2013-03-28 11:53:00,55.0,-99.9,30.36,NNW,348,8.0,12.0,-999,-99.99,,,-99.99,,2013-03-28 15:53:00,
2013-03-28 12:03:00,55.0,-99.9,30.36,North,360,9.0,12.0,-999,-99.99,,,-99.99,,2013-03-28 16:03:00,
2013-03-28 12:13:00,55.0,-99.9,30.36,North,355,10.0,14.0,-999,-99.99,,,-99.99,,2013-03-28 16:13:00,
2013-03-28 12:23:00,56.0,-99.9,30.35,North,3,11.0,16.0,-999,-99.99,,,-99.99,,2013-03-28 16:23:00,
2013-03-28 12:32:00,57.0,-99.9,30.35,NNW,330,11.0,14.0,-999,-99.99,,,-99.99,,2013-03-28 16:32:00,
2013-03-28 12:42:00,57.0,-99.9,30.35,NW,316,12.0,18.0,-999,-99.99,,,-99.99,,2013-03-28 16:42:00,
2013-03-28 12:52:00,57.0,-99.9,30.35,NW,315,11.0,16.0,-999,-99.99,,,-99.99,,2013-03-28 16:52:00,
2013-03-28 13:02:00,58.0,-99.9,30.35,North,351,15.0,18.0,-999,-99.99,,,-99.99,,2013-03-28 17:02:00,
2013-03-28 13:12:00,58.0,-99.9,30.35,NNW,328,11.0,16.0,-999,-99.99,,,-99.99,,2013-03-28 17:12:00,
2013-03-28 13:22:00,58.0,-99.9,30.35,NNW,342,11.0,15.0,-999,-99.99,,,-99.99,,2013-03-28 17:22:00,
2013-03-28 13:32:00,58.0,-99.9,30.35,NNW,332,12.0,16.0,-999,-99.99,,,-99.99,,2013-03-28 17:32:00,
2013-03-28 13:42:00,59.0,-99.9,30.34,NNW,342,12.0,18.0,-999,-99.99,,,-99.99,,2013-03-28 17:42:00,
2013-03-28 13:52:00,59.0,-99.9,30.34,NNW,345,9.0,17.0,-999,-99.99,,,-99.99,,2013-03-28 17:52:00,
2013-03-28 14:03:00,60.0,-99.9,30.34,NNW,345,14.0,18.0,-999,-99.99,,,-99.99,,2013-03-28 18:03:00,
2013-03-28 14:12:00,55.0,-99.9,30.33,NE,48,17.0,19.0,-999,-99.99,,,-99.99,,2013-03-28 18:12:00,
2013-03-28 14:22:00,55.0,-99.9,30.33,NE,49,17.0,19.0,-999,-99.99,,,-99.99,,2013-03-28 18:22:00,
2013-03-28 14:32:00,55.0,-99.9,30.33,NE,40,15.0,19.0,-999,-99.99,,,-99.99,,2013-03-28 18:32:00,
2013-03-28 14:42:00,55.0,-99.9,30.33,NE,45,16.0,19.0,-999,-99.99,,,-99.99,,2013-03-28 18:42:00,
2013-03-28 14:52:00,54.0,-99.9,30.32,NE,46,15.0,18.0,-999,-99.99,,,-99.99,,2013-03-28 18:52:00,
2013-03-28 15:02:00,54.0,-99.9,30.32,NE,34,16.0,20.0,-999,-99.99,,,-99.99,,2013-03-28 19:02:00,
2013-03-28 15:12:00,54.0,-99.9,30.32,NE,44,13.0,17.0,-999,-99.99,,,-99.99,,2013-03-28 19:12:00,
2013-03-28 15:23:00,55.0,-99.9,30.32,NE,42,12.0,16.0,-999,-99.99,,,-99.99,,2013-03-28 19:23:00,
2013-03-28 15:33:00,54.0,-99.9,30.31,NE,55,15.0,18.0,-999,-99.99,,,-99.99,,2013-03-28 19:33:00,
2013-03-28 15:43:00,54.0,-99.9,30.30,NE,46,15.0,17.0,-999,-99.99,,,-99.99,,2013-03-28 19:43:00,
2013-03-28 15:52:00,55.0,-99.9,30.30,NE,46,16.0,17.0,-999,-99.99,,,-99.99,,2013-03-28 19:52:00,
2013-03-28 16:03:00,55.0,-99.9,30.30,NE,49,14.0,18.0,-999,-99.99,,,-99.99,,2013-03-28 20:03:00,
2013-03-28 16:12:00,55.0,-99.9,30.29,NE,51,13.0,15.0,-999,-99.99,,,-99.99,,2013-03-28 20:12:00,
2013-03-28 16:22:00,54.0,-99.9,30.29,NE,52,14.0,17.0,-999,-99.99,,,-99.99,,2013-03-28 20:22:00,
2013-03-28 16:33:00,55.0,-99.9,30.29,NE,56,13.0,15.0,-999,-99.99,,,-99.99,,2013-03-28 20:33:00,
2013-03-28 16:43:00,55.0,-99.9,30.28,ENE,61,11.0,15.0,-999,-99.99,,,-99.99,,2013-03-28 20:43:00,
2013-03-28 16:53:00,55.0,-99.9,30.28,ENE,67,11.0,15.0,-999,-99.99,,,-99.99,,2013-03-28 20:53:00,
2013-03-28 17:03:00,55.0,-99.9,30.28,ENE,64,11.0,14.0,-999,-99.99,,,-99.99,,2013-03-28 21:03:00,
2013-03-28 17:12:00,55.0,-99.9,30.28,ENE,59,10.0,12.0,-999,-99.99,,,-99.99,,2013-03-28 21:12:00,
2013-03-28 17:22:00,55.0,-99.9,30.28,ENE,64,10.0,13.0,-999,-99.99,,,-99.99,,2013-03-28 21:22:00,
2013-03-28 17:33:00,56.0,-99.9,30.28,ENE,76,9.0,11.0,-999,-99.99,,,-99.99,,2013-03-28 21:33:00,
2013-03-28 17:43:00,55.0,-99.9,30.28,ENE,66,10.0,13.0,-999,-99.99,,,-99.99,,2013-03-28 21:43:00,
2013-03-28 17:53:00,56.0,-99.9,30.28,ENE,73,10.0,13.0,-999,-99.99,,,-99.99,,2013-03-28 21:53:00,
2013-03-28 18:03:00,56.0,-99.9,30.28,ENE,71,9.0,11.0,-999,-99.99,,,-99.99,,2013-03-28 22:03:00,
2013-03-28 18:13:00,56.0,-99.9,30.28,ENE,69,8.0,10.0,-999,-99.99,,,-99.99,,2013-03-28 22:13:00,
2013-03-28 18:23:00,56.0,-99.9,30.28,ENE,64,8.0,10.0,-999,-99.99,,,-99.99,,2013-03-28 22:23:00,
2013-03-28 18:32:00,56.0,-99.9,30.28,ENE,62,7.0,9.0,-999,-99.99,,,-99.99,,2013-03-28 22:32:00,
2013-03-28 18:42:00,56.0,-99.9,30.28,ENE,70,7.0,9.0,-999,-99.99,,,-99.99,,2013-03-28 22:42:00,
2013-03-28 18:53:00,56.0,-99.9,30.28,ENE,69,6.0,8.0,-999,-99.99,,,-99.99,,2013-03-28 22:53:00,
2013-03-28 19:03:00,57.0,-99.9,30.29,East,81,7.0,9.0,-999,-99.99,,,-99.99,,2013-03-28 23:03:00,
2013-03-28 19:12:00,57.0,-99.9,30.29,ENE,64,5.0,7.0,-999,-99.99,,,-99.99,,2013-03-28 23:12:00,
2013-03-28 19:22:00,57.0,-99.9,30.29,ENE,73,6.0,7.0,-999,-99.99,,,-99.99,,2013-03-28 23:22:00,
2013-03-28 19:32:00,57.0,-99.9,30.29,East,81,5.0,7.0,-999,-99.99,,,-99.99,,2013-03-28 23:32:00,
2013-03-28 19:42:00,57.0,-99.9,30.29,ENE,70,4.0,6.0,-999,-99.99,,,-99.99,,2013-03-28 23:42:00,
2013-03-28 19:53:00,57.0,-99.9,30.29,East,91,4.0,6.0,-999,-99.99,,,-99.99,,2013-03-28 23:53:00,
2013-03-28 20:03:00,56.0,-99.9,30.30,ESE,104,3.0,5.0,-999,-99.99,,,-99.99,,2013-03-29 00:03:00,
2013-03-28 20:12:00,56.0,-99.9,30.30,ESE,109,2.0,3.0,-999,-99.99,,,-99.99,,2013-03-29 00:12:00,
2013-03-28 20:22:00,55.0,-99.9,30.30,ESE,112,2.0,3.0,-999,-99.99,,,-99.99,,2013-03-29 00:22:00,
2013-03-28 20:33:00,55.0,-99.9,30.30,SE,128,2.0,2.0,-999,-99.99,,,-99.99,,2013-03-29 00:33:00,
2013-03-28 20:43:00,55.0,-99.9,30.30,South,171,2.0,3.0,-999,-99.99,,,-99.99,,2013-03-29 00:43:00,
2013-03-28 20:52:00,55.0,-99.9,30.31,ESE,120,1.0,3.0,-999,-99.99,,,-99.99,,2013-03-29 00:52:00,
2013-03-28 21:02:00,55.0,-99.9,30.31,ESE,108,1.0,2.0,-999,-99.99,,,-99.99,,2013-03-29 01:02:00,
2013-03-28 21:12:00,54.0,-99.9,30.31,East,99,-999.0,0.0,-999,-99.99,,,-99.99,,2013-03-29 01:12:00,
2013-03-28 21:23:00,54.0,-99.9,30.31,North,-999,-999.0,-999.0,-999,-99.99,,,-99.99,,2013-03-29 01:23:00,
2013-03-28 21:33:00,55.0,-99.9,30.32,South,175,2.0,2.0,-999,-99.99,,,-99.99,,2013-03-29 01:33:00,
2013-03-28 21:42:00,54.0,-99.9,30.32,SSW,201,0.0,2.0,-999,-99.99,,,-99.99,,2013-03-29 01:42:00,
2013-03-28 21:53:00,54.0,-99.9,30.32,North,-999,-999.0,-999.0,-999,-99.99,,,-99.99,,2013-03-29 01:53:00,
2013-03-28 22:03:00,54.0,-99.9,30.32,SW,214,1.0,1.0,-999,-99.99,,,-99.99,,2013-03-29 02:03:00,
2013-03-28 22:12:00,54.0,-99.9,30.33,North,-999,-999.0,-999.0,-999,-99.99,,,-99.99,,2013-03-29 02:12:00,
2013-03-28 22:22:00,54.0,-99.9,30.33,SSW,206,3.0,3.0,-999,-99.99,,,-99.99,,2013-03-29 02:22:00,
2013-03-28 22:32:00,53.0,-99.9,30.33,SW,215,2.0,3.0,-999,-99.99,,,-99.99,,2013-03-29 02:32:00,
2013-03-28 22:42:00,53.0,-99.9,30.34,SSW,203,3.0,3.0,-999,-99.99,,,-99.99,,2013-03-29 02:42:00,
2013-03-28 22:53:00,53.0,-99.9,30.34,SSW,197,3.0,3.0,-999,-99.99,,,-99.99,,2013-03-29 02:53:00,
2013-03-28 23:03:00,53.0,-99.9,30.34,SSW,199,3.0,4.0,-999,-99.99,,,-99.99,,2013-03-29 03:03:00,
2013-03-28 23:12:00,53.0,-99.9,30.34,SSW,197,3.0,3.0,-999,-99.99,,,-99.99,,2013-03-29 03:12:00,
2013-03-28 23:22:00,53.0,-99.9,30.34,SSW,205,3.0,3.0,-999,-99.99,,,-99.99,,2013-03-29 03:22:00,
2013-03-28 23:33:00,53.0,-99.9,30.34,SW,225,3.0,4.0,-999,-99.99,,,-99.99,,2013-03-29 03:33:00,
2013-03-28 23:43:00,53.0,-99.9,30.35,SSW,210,2.0,3.0,-999,-99.99,,,-99.99,,2013-03-29 03:43:00,
2013-03-28 23:53:00,53.0,-99.9,30.35,SSW,207,4.0,4.0,-999,-99.99,,,-99.99,,2013-03-29 03:53:00,